Aeroporto :
LOGIN :

Iscrizione | Disclaimer

   EN    FR    IT 

 










Sommario :    VFR   VFR Marginale   IFR   IFR Intensivo   IFR Molto Intensivo
Visibilità : 
Base nubi : 
>= 8 km
>= 3000ft
5 / 8 km
1000 / 3000 ft
1500m / 5 km
500 / 1000 ft
800 / 1500m
200 / 500 ft
< 800m
< 200 ft
Simboli :   Temporali  Nebbia  Neve Forte  Precipitazioni Forti  Vento > 20 kt
SIGMETs :   Varie  Temporali  Ghiacco  Turbolenza  Onda orograficha  Ceneri Vulcaniche







- Altitudine del aeroporto : 156 ft
- Codice IATA : MLN


GEML - Melilla

ULTIMO METAR :
  • 210500Z 06005KT 020V100 9999 SCT009 BKN016 24/22 Q1015

METARs OBSOLETI :
  • 210430Z 06004KT 020V090 9999 SCT009 BKN014 24/22 Q1015
  • 210400Z 08005KT 030V100 9999 FEW009 BKN013 24/22 Q1015
  • 210330Z AUTO 07004KT 040V100 9999 FEW011/// 24/22 Q1015
  • 210300Z AUTO 06004KT 020V100 9999 FEW008/// 24/22 Q1015

TAF TAF GEML
Valido dal 21 a 03 ore il 22 a 03 ore UTC


210200Z 2103/2203 08009KT 9999 FEW012 SCT018 TX29/2114Z TN24/2105Z
PROB40
TEMPO 2103/2107 4000 BR BKN014
PROB40
TEMPO 2109/2116 08015G25KT
Nessun NOTAM noto per questo aeroporto.



MetMap, La meteo Aeronautica in un colpo d'occhio ! - Copyright ORBIFLY Dicembre 2007 - Disclaimer

ORBIFLY MET'MAP TEAM :

Programmazione e sviluppo : Alexandra Zaïnal
Concezione e sviluppo : Baudouin d'Aumeries
Co-Programmazione e sviluppo : Marc-Olivier Méhu
Supporto tecnico e logistico : Manuel Goepfert
Aiuto per la traduzione : Arnaldo La Scala

Contatto : metmap@orbifly.com




FONTI E CREDITI :

   NOAA